sensor_id;sensor_type;location;lat;lon;timestamp;P1;durP1;ratioP1;P2;durP2;ratioP2
64560;SDS011;50960;46.838;16.838;2022-12-01T04:02:32;20.48;;;17.30;;
64560;SDS011;50960;46.838;16.838;2022-12-01T04:04:59;20.23;;;16.77;;
64560;SDS011;50960;46.838;16.838;2022-12-01T04:07:25;20.70;;;16.25;;
64560;SDS011;50960;46.838;16.838;2022-12-01T04:09:51;20.65;;;16.08;;
64560;SDS011;50960;46.838;16.838;2022-12-01T04:12:17;21.77;;;17.38;;
64560;SDS011;50960;46.838;16.838;2022-12-01T04:15:15;22.05;;;17.13;;
64560;SDS011;50960;46.838;16.838;2022-12-01T04:17:42;20.38;;;17.45;;
64560;SDS011;50960;46.838;16.838;2022-12-01T04:20:11;20.77;;;17.10;;
64560;SDS011;50960;46.838;16.838;2022-12-01T04:22:38;21.40;;;17.33;;
64560;SDS011;50960;46.838;16.838;2022-12-01T04:25:05;21.27;;;17.65;;
64560;SDS011;50960;46.838;16.838;2022-12-01T04:27:32;23.05;;;19.35;;
64560;SDS011;50960;46.838;16.838;2022-12-01T04:29:59;20.13;;;16.45;;
64560;SDS011;50960;46.838;16.838;2022-12-01T04:32:26;19.73;;;17.17;;
64560;SDS011;50960;46.838;16.838;2022-12-01T04:34:52;22.20;;;17.35;;
64560;SDS011;50960;46.838;16.838;2022-12-01T04:37:18;20.83;;;17.23;;
64560;SDS011;50960;46.838;16.838;2022-12-01T04:39:44;21.23;;;17.92;;
64560;SDS011;50960;46.838;16.838;2022-12-01T04:42:11;20.13;;;16.67;;
64560;SDS011;50960;46.838;16.838;2022-12-01T04:44:37;21.10;;;17.67;;
64560;SDS011;50960;46.838;16.838;2022-12-01T04:47:03;19.95;;;17.65;;
64560;SDS011;50960;46.838;16.838;2022-12-01T04:49:31;21.38;;;17.83;;
64560;SDS011;50960;46.838;16.838;2022-12-01T04:51:57;20.42;;;17.88;;
64560;SDS011;50960;46.838;16.838;2022-12-01T04:54:24;20.27;;;17.60;;
64560;SDS011;50960;46.838;16.838;2022-12-01T04:56:50;21.67;;;17.50;;
64560;SDS011;50960;46.838;16.838;2022-12-01T04:59:16;19.25;;;17.13;;
64560;SDS011;50960;46.838;16.838;2022-12-01T05:01:42;20.15;;;17.30;;
64560;SDS011;50960;46.838;16.838;2022-12-01T05:04:11;20.13;;;17.63;;
64560;SDS011;50960;46.838;16.838;2022-12-01T05:06:38;21.40;;;17.48;;
64560;SDS011;50960;46.838;16.838;2022-12-01T05:09:04;21.05;;;17.83;;
64560;SDS011;50960;46.838;16.838;2022-12-01T05:11:31;19.60;;;17.27;;
64560;SDS011;50960;46.838;16.838;2022-12-01T05:13:57;22.23;;;17.45;;
64560;SDS011;50960;46.838;16.838;2022-12-01T05:16:28;19.55;;;17.20;;
64560;SDS011;50960;46.838;16.838;2022-12-01T05:18:59;19.67;;;17.25;;
64560;SDS011;50960;46.838;16.838;2022-12-01T05:21:47;19.80;;;17.70;;
64560;SDS011;50960;46.838;16.838;2022-12-01T05:24:15;20.98;;;18.48;;
64560;SDS011;50960;46.838;16.838;2022-12-01T05:26:42;20.58;;;17.50;;
64560;SDS011;50960;46.838;16.838;2022-12-01T05:29:09;21.42;;;17.65;;
64560;SDS011;50960;46.838;16.838;2022-12-01T05:31:36;21.00;;;18.13;;
64560;SDS011;50960;46.838;16.838;2022-12-01T05:34:04;22.63;;;18.67;;
64560;SDS011;50960;46.838;16.838;2022-12-01T05:36:31;21.85;;;18.80;;
64560;SDS011;50960;46.838;16.838;2022-12-01T05:38:57;20.20;;;17.60;;
64560;SDS011;50960;46.838;16.838;2022-12-01T05:41:23;22.67;;;20.15;;
64560;SDS011;50960;46.838;16.838;2022-12-01T05:43:50;21.48;;;18.98;;
64560;SDS011;50960;46.838;16.838;2022-12-01T05:46:16;22.02;;;18.73;;
64560;SDS011;50960;46.838;16.838;2022-12-01T05:48:42;21.75;;;18.42;;
64560;SDS011;50960;46.838;16.838;2022-12-01T05:51:12;21.45;;;17.55;;
64560;SDS011;50960;46.838;16.838;2022-12-01T05:53:40;23.30;;;18.75;;
64560;SDS011;50960;46.838;16.838;2022-12-01T05:56:07;20.85;;;18.20;;
64560;SDS011;50960;46.838;16.838;2022-12-01T05:58:34;21.73;;;18.35;;
64560;SDS011;50960;46.838;16.838;2022-12-01T06:01:00;21.85;;;18.10;;
64560;SDS011;50960;46.838;16.838;2022-12-01T06:03:27;21.88;;;18.92;;
64560;SDS011;50960;46.838;16.838;2022-12-01T06:05:53;22.20;;;19.35;;
64560;SDS011;50960;46.838;16.838;2022-12-01T11:21:25;33.95;;;24.50;;
64560;SDS011;50960;46.838;16.838;2022-12-01T11:23:53;29.38;;;21.95;;
64560;SDS011;50960;46.838;16.838;2022-12-01T11:28:59;34.17;;;24.42;;
64560;SDS011;50960;46.838;16.838;2022-12-01T11:31:37;32.92;;;24.00;;
64560;SDS011;50960;46.838;16.838;2022-12-01T11:34:05;33.70;;;24.27;;
64560;SDS011;50960;46.838;16.838;2022-12-01T11:37:30;30.95;;;23.02;;
64560;SDS011;50960;46.838;16.838;2022-12-01T11:39:40;32.45;;;23.58;;
64560;SDS011;50960;46.838;16.838;2022-12-01T11:44:38;33.75;;;24.67;;
64560;SDS011;50960;46.838;16.838;2022-12-01T11:47:13;32.00;;;23.38;;
64560;SDS011;50960;46.838;16.838;2022-12-01T11:49:45;33.33;;;24.37;;
64560;SDS011;50960;46.838;16.838;2022-12-01T11:52:21;32.15;;;24.08;;
64560;SDS011;50960;46.838;16.838;2022-12-01T11:57:36;32.33;;;24.42;;
64560;SDS011;50960;46.838;16.838;2022-12-01T12:00:15;37.28;;;25.13;;
64560;SDS011;50960;46.838;16.838;2022-12-01T12:16:21;31.13;;;22.25;;
64560;SDS011;50960;46.838;16.838;2022-12-01T12:30:27;31.05;;;22.10;;
64560;SDS011;50960;46.838;16.838;2022-12-01T12:52:32;32.95;;;22.60;;
64560;SDS011;50960;46.838;16.838;2022-12-01T12:55:14;31.60;;;23.17;;
64560;SDS011;50960;46.838;16.838;2022-12-01T12:58:07;32.40;;;22.98;;
64560;SDS011;50960;46.838;16.838;2022-12-01T13:00:48;28.67;;;21.92;;
64560;SDS011;50960;46.838;16.838;2022-12-01T13:03:24;31.30;;;22.17;;
64560;SDS011;50960;46.838;16.838;2022-12-01T13:06:12;30.33;;;23.17;;
64560;SDS011;50960;46.838;16.838;2022-12-01T13:11:13;30.42;;;22.00;;
64560;SDS011;50960;46.838;16.838;2022-12-01T13:16:33;30.08;;;23.05;;
64560;SDS011;50960;46.838;16.838;2022-12-01T13:19:04;30.10;;;22.67;;
64560;SDS011;50960;46.838;16.838;2022-12-01T13:21:52;30.42;;;22.73;;
64560;SDS011;50960;46.838;16.838;2022-12-01T13:24:23;30.75;;;23.25;;
64560;SDS011;50960;46.838;16.838;2022-12-01T13:29:46;31.90;;;22.25;;
64560;SDS011;50960;46.838;16.838;2022-12-01T13:32:47;31.13;;;22.27;;
64560;SDS011;50960;46.838;16.838;2022-12-01T13:35:21;31.38;;;21.40;;
64560;SDS011;50960;46.838;16.838;2022-12-01T13:37:52;30.70;;;22.73;;
64560;SDS011;50960;46.838;16.838;2022-12-01T13:40:29;29.30;;;23.00;;
64560;SDS011;50960;46.838;16.838;2022-12-01T13:43:00;30.83;;;22.17;;
64560;SDS011;50960;46.838;16.838;2022-12-01T13:48:00;31.45;;;21.98;;
64560;SDS011;50960;46.838;16.838;2022-12-01T13:53:10;30.58;;;21.75;;
64560;SDS011;50960;46.838;16.838;2022-12-01T13:55:54;28.73;;;21.67;;
64560;SDS011;50960;46.838;16.838;2022-12-01T14:00:50;33.58;;;24.27;;
64560;SDS011;50960;46.838;16.838;2022-12-01T14:08:21;34.50;;;24.97;;
64560;SDS011;50960;46.838;16.838;2022-12-01T14:13:31;32.35;;;23.70;;
64560;SDS011;50960;46.838;16.838;2022-12-01T14:16:10;32.92;;;23.40;;
64560;SDS011;50960;46.838;16.838;2022-12-01T14:18:48;32.10;;;23.17;;
64560;SDS011;50960;46.838;16.838;2022-12-01T14:21:41;30.50;;;21.70;;
64560;SDS011;50960;46.838;16.838;2022-12-01T14:24:14;32.45;;;23.13;;
64560;SDS011;50960;46.838;16.838;2022-12-01T14:26:48;32.75;;;23.15;;
64560;SDS011;50960;46.838;16.838;2022-12-01T14:29:24;33.03;;;24.00;;
64560;SDS011;50960;46.838;16.838;2022-12-01T14:34:19;31.90;;;22.80;;
64560;SDS011;50960;46.838;16.838;2022-12-01T14:39:42;31.08;;;22.63;;
64560;SDS011;50960;46.838;16.838;2022-12-01T14:42:16;33.28;;;22.75;;
64560;SDS011;50960;46.838;16.838;2022-12-01T14:45:34;30.25;;;22.38;;
64560;SDS011;50960;46.838;16.838;2022-12-01T14:48:31;30.85;;;22.52;;
64560;SDS011;50960;46.838;16.838;2022-12-01T14:53:48;31.85;;;23.77;;
64560;SDS011;50960;46.838;16.838;2022-12-01T14:56:17;34.17;;;24.50;;
64560;SDS011;50960;46.838;16.838;2022-12-01T14:58:52;31.77;;;24.05;;
64560;SDS011;50960;46.838;16.838;2022-12-01T15:01:23;33.53;;;25.10;;
64560;SDS011;50960;46.838;16.838;2022-12-01T15:03:57;35.22;;;26.27;;
64560;SDS011;50960;46.838;16.838;2022-12-01T15:06:26;35.65;;;26.55;;
64560;SDS011;50960;46.838;16.838;2022-12-01T15:09:04;35.45;;;26.42;;
64560;SDS011;50960;46.838;16.838;2022-12-01T15:11:34;33.95;;;24.90;;
64560;SDS011;50960;46.838;16.838;2022-12-01T15:14:18;33.95;;;25.58;;
64560;SDS011;50960;46.838;16.838;2022-12-01T15:16:47;33.50;;;25.35;;
64560;SDS011;50960;46.838;16.838;2022-12-01T15:19:21;34.15;;;25.77;;
64560;SDS011;50960;46.838;16.838;2022-12-01T15:21:58;34.40;;;25.92;;
64560;SDS011;50960;46.838;16.838;2022-12-01T15:24:36;34.08;;;25.63;;
64560;SDS011;50960;46.838;16.838;2022-12-01T15:27:02;37.20;;;27.35;;
64560;SDS011;50960;46.838;16.838;2022-12-01T15:34:28;39.25;;;28.83;;
64560;SDS011;50960;46.838;16.838;2022-12-01T15:37:02;35.25;;;27.02;;
64560;SDS011;50960;46.838;16.838;2022-12-01T15:39:32;39.85;;;28.65;;
64560;SDS011;50960;46.838;16.838;2022-12-01T15:42:00;37.10;;;28.25;;
64560;SDS011;50960;46.838;16.838;2022-12-01T15:44:29;35.25;;;28.90;;
64560;SDS011;50960;46.838;16.838;2022-12-01T15:46:58;35.05;;;27.13;;
64560;SDS011;50960;46.838;16.838;2022-12-01T15:49:26;33.35;;;26.92;;
64560;SDS011;50960;46.838;16.838;2022-12-01T15:52:09;34.40;;;26.35;;
64560;SDS011;50960;46.838;16.838;2022-12-01T15:54:36;34.72;;;26.48;;
64560;SDS011;50960;46.838;16.838;2022-12-01T15:57:04;32.90;;;27.17;;
64560;SDS011;50960;46.838;16.838;2022-12-01T15:59:38;36.17;;;28.45;;
64560;SDS011;50960;46.838;16.838;2022-12-01T16:02:19;38.88;;;30.05;;
64560;SDS011;50960;46.838;16.838;2022-12-01T16:04:47;39.58;;;30.45;;
64560;SDS011;50960;46.838;16.838;2022-12-01T16:07:23;41.47;;;30.80;;
64560;SDS011;50960;46.838;16.838;2022-12-01T16:09:57;38.35;;;28.52;;
64560;SDS011;50960;46.838;16.838;2022-12-01T16:12:25;35.67;;;27.92;;
64560;SDS011;50960;46.838;16.838;2022-12-01T16:17:26;35.55;;;27.70;;
64560;SDS011;50960;46.838;16.838;2022-12-01T16:22:53;43.35;;;32.40;;
64560;SDS011;50960;46.838;16.838;2022-12-01T16:25:27;54.35;;;39.38;;
64560;SDS011;50960;46.838;16.838;2022-12-01T16:27:55;47.90;;;36.38;;
64560;SDS011;50960;46.838;16.838;2022-12-01T16:30:23;42.95;;;32.28;;
64560;SDS011;50960;46.838;16.838;2022-12-01T16:32:59;40.33;;;31.17;;
64560;SDS011;50960;46.838;16.838;2022-12-01T16:35:31;42.22;;;32.28;;
64560;SDS011;50960;46.838;16.838;2022-12-01T16:38:11;39.45;;;30.42;;
64560;SDS011;50960;46.838;16.838;2022-12-01T16:40:41;38.25;;;30.42;;
64560;SDS011;50960;46.838;16.838;2022-12-01T16:43:11;40.25;;;31.35;;
64560;SDS011;50960;46.838;16.838;2022-12-01T16:45:44;40.78;;;30.15;;
64560;SDS011;50960;46.838;16.838;2022-12-01T16:48:14;42.20;;;31.90;;
64560;SDS011;50960;46.838;16.838;2022-12-01T16:50:43;48.08;;;35.08;;
64560;SDS011;50960;46.838;16.838;2022-12-01T16:53:11;54.55;;;40.08;;
64560;SDS011;50960;46.838;16.838;2022-12-01T16:55:40;69.53;;;48.35;;
64560;SDS011;50960;46.838;16.838;2022-12-01T16:58:24;75.45;;;50.90;;
64560;SDS011;50960;46.838;16.838;2022-12-01T17:00:50;75.93;;;56.80;;
64560;SDS011;50960;46.838;16.838;2022-12-01T17:03:21;70.57;;;49.58;;
64560;SDS011;50960;46.838;16.838;2022-12-01T17:05:50;80.90;;;57.05;;
64560;SDS011;50960;46.838;16.838;2022-12-01T17:08:17;50.33;;;38.15;;
64560;SDS011;50960;46.838;16.838;2022-12-01T17:10:44;61.65;;;46.63;;
64560;SDS011;50960;46.838;16.838;2022-12-01T17:13:14;55.58;;;41.88;;
64560;SDS011;50960;46.838;16.838;2022-12-01T17:15:43;56.75;;;43.47;;
64560;SDS011;50960;46.838;16.838;2022-12-01T17:18:11;59.38;;;44.15;;
64560;SDS011;50960;46.838;16.838;2022-12-01T17:20:39;57.58;;;43.45;;
64560;SDS011;50960;46.838;16.838;2022-12-01T17:23:05;52.35;;;40.72;;
64560;SDS011;50960;46.838;16.838;2022-12-01T17:25:32;52.97;;;39.47;;
64560;SDS011;50960;46.838;16.838;2022-12-01T17:27:58;59.88;;;44.47;;
64560;SDS011;50960;46.838;16.838;2022-12-01T17:30:25;55.03;;;42.03;;
64560;SDS011;50960;46.838;16.838;2022-12-01T17:32:51;56.95;;;41.47;;
64560;SDS011;50960;46.838;16.838;2022-12-01T17:35:17;55.45;;;42.25;;
64560;SDS011;50960;46.838;16.838;2022-12-01T17:37:43;57.40;;;42.45;;
64560;SDS011;50960;46.838;16.838;2022-12-01T17:40:10;53.83;;;40.45;;
64560;SDS011;50960;46.838;16.838;2022-12-01T17:42:41;51.05;;;39.25;;
64560;SDS011;50960;46.838;16.838;2022-12-01T17:45:07;49.90;;;37.65;;
64560;SDS011;50960;46.838;16.838;2022-12-01T17:47:34;51.20;;;38.47;;
64560;SDS011;50960;46.838;16.838;2022-12-01T17:50:00;49.20;;;38.05;;
64560;SDS011;50960;46.838;16.838;2022-12-01T17:52:26;61.05;;;43.65;;
64560;SDS011;50960;46.838;16.838;2022-12-01T17:54:53;73.97;;;52.40;;
64560;SDS011;50960;46.838;16.838;2022-12-01T17:57:21;65.15;;;47.53;;
64560;SDS011;50960;46.838;16.838;2022-12-01T17:59:47;62.78;;;46.90;;
64560;SDS011;50960;46.838;16.838;2022-12-01T18:02:13;61.40;;;45.63;;
64560;SDS011;50960;46.838;16.838;2022-12-01T18:04:39;59.90;;;43.03;;
64560;SDS011;50960;46.838;16.838;2022-12-01T18:07:06;55.03;;;41.20;;
64560;SDS011;50960;46.838;16.838;2022-12-01T18:09:32;55.25;;;40.42;;
64560;SDS011;50960;46.838;16.838;2022-12-01T18:11:58;54.85;;;41.28;;
64560;SDS011;50960;46.838;16.838;2022-12-01T18:14:25;53.97;;;40.25;;
64560;SDS011;50960;46.838;16.838;2022-12-01T18:16:51;53.30;;;38.60;;
64560;SDS011;50960;46.838;16.838;2022-12-01T18:19:18;49.35;;;36.38;;
64560;SDS011;50960;46.838;16.838;2022-12-01T18:21:45;43.33;;;34.28;;
64560;SDS011;50960;46.838;16.838;2022-12-01T18:24:11;43.38;;;33.47;;
64560;SDS011;50960;46.838;16.838;2022-12-01T18:26:38;47.10;;;33.65;;
64560;SDS011;50960;46.838;16.838;2022-12-01T18:29:06;42.72;;;31.67;;
64560;SDS011;50960;46.838;16.838;2022-12-01T18:31:41;43.08;;;31.70;;
64560;SDS011;50960;46.838;16.838;2022-12-01T18:34:08;46.03;;;32.92;;
64560;SDS011;50960;46.838;16.838;2022-12-01T18:36:37;42.10;;;32.05;;
64560;SDS011;50960;46.838;16.838;2022-12-01T18:39:05;48.45;;;34.80;;
64560;SDS011;50960;46.838;16.838;2022-12-01T18:41:33;41.03;;;31.95;;
64560;SDS011;50960;46.838;16.838;2022-12-01T18:44:00;43.17;;;31.95;;
64560;SDS011;50960;46.838;16.838;2022-12-01T18:46:27;43.63;;;32.65;;
64560;SDS011;50960;46.838;16.838;2022-12-01T18:48:54;43.58;;;32.85;;
64560;SDS011;50960;46.838;16.838;2022-12-01T18:51:25;44.72;;;31.80;;
64560;SDS011;50960;46.838;16.838;2022-12-01T18:53:55;44.47;;;31.17;;
64560;SDS011;50960;46.838;16.838;2022-12-01T18:56:23;40.22;;;30.88;;
64560;SDS011;50960;46.838;16.838;2022-12-01T18:58:56;41.33;;;30.33;;
64560;SDS011;50960;46.838;16.838;2022-12-01T19:01:29;42.17;;;31.73;;
64560;SDS011;50960;46.838;16.838;2022-12-01T19:03:57;43.38;;;31.65;;
64560;SDS011;50960;46.838;16.838;2022-12-01T19:06:25;40.35;;;30.05;;
64560;SDS011;50960;46.838;16.838;2022-12-01T19:08:52;38.97;;;30.23;;
64560;SDS011;50960;46.838;16.838;2022-12-01T19:11:19;41.70;;;30.90;;
64560;SDS011;50960;46.838;16.838;2022-12-01T19:13:45;38.67;;;30.55;;
64560;SDS011;50960;46.838;16.838;2022-12-01T19:16:13;39.25;;;29.30;;
64560;SDS011;50960;46.838;16.838;2022-12-01T19:18:42;37.42;;;28.90;;
64560;SDS011;50960;46.838;16.838;2022-12-01T19:21:09;37.88;;;29.15;;
64560;SDS011;50960;46.838;16.838;2022-12-01T19:23:37;39.67;;;29.33;;
64560;SDS011;50960;46.838;16.838;2022-12-01T19:26:04;39.67;;;30.90;;
64560;SDS011;50960;46.838;16.838;2022-12-01T19:28:33;37.47;;;28.40;;
64560;SDS011;50960;46.838;16.838;2022-12-01T19:31:04;42.20;;;30.17;;
64560;SDS011;50960;46.838;16.838;2022-12-01T19:33:35;52.05;;;38.80;;
64560;SDS011;50960;46.838;16.838;2022-12-01T19:36:05;52.15;;;40.30;;
64560;SDS011;50960;46.838;16.838;2022-12-01T19:38:33;53.00;;;40.20;;
64560;SDS011;50960;46.838;16.838;2022-12-01T19:41:00;47.78;;;37.80;;
64560;SDS011;50960;46.838;16.838;2022-12-01T19:43:27;45.40;;;33.47;;
64560;SDS011;50960;46.838;16.838;2022-12-01T19:45:53;46.13;;;33.85;;
64560;SDS011;50960;46.838;16.838;2022-12-01T19:48:19;51.28;;;37.08;;
64560;SDS011;50960;46.838;16.838;2022-12-01T19:50:46;52.47;;;38.50;;
64560;SDS011;50960;46.838;16.838;2022-12-01T19:53:12;53.35;;;39.78;;
64560;SDS011;50960;46.838;16.838;2022-12-01T19:55:38;46.25;;;34.47;;
64560;SDS011;50960;46.838;16.838;2022-12-01T19:58:04;41.80;;;32.15;;
64560;SDS011;50960;46.838;16.838;2022-12-01T20:00:31;44.47;;;31.92;;
64560;SDS011;50960;46.838;16.838;2022-12-01T20:02:57;42.38;;;30.67;;
64560;SDS011;50960;46.838;16.838;2022-12-01T20:05:24;40.97;;;30.95;;
64560;SDS011;50960;46.838;16.838;2022-12-01T20:07:50;41.15;;;31.20;;
64560;SDS011;50960;46.838;16.838;2022-12-01T20:10:17;51.58;;;39.72;;
64560;SDS011;50960;46.838;16.838;2022-12-01T20:12:45;56.40;;;39.83;;
64560;SDS011;50960;46.838;16.838;2022-12-01T20:15:12;46.60;;;33.25;;
64560;SDS011;50960;46.838;16.838;2022-12-01T20:17:38;43.20;;;30.75;;
64560;SDS011;50960;46.838;16.838;2022-12-01T20:20:05;43.35;;;31.15;;
64560;SDS011;50960;46.838;16.838;2022-12-01T20:22:32;44.17;;;31.98;;
64560;SDS011;50960;46.838;16.838;2022-12-01T20:24:59;41.83;;;31.27;;
64560;SDS011;50960;46.838;16.838;2022-12-01T20:27:26;40.50;;;30.88;;
64560;SDS011;50960;46.838;16.838;2022-12-01T20:29:53;43.15;;;30.23;;
64560;SDS011;50960;46.838;16.838;2022-12-01T20:32:20;42.03;;;30.20;;
64560;SDS011;50960;46.838;16.838;2022-12-01T20:34:46;41.10;;;30.85;;
64560;SDS011;50960;46.838;16.838;2022-12-01T20:37:13;41.50;;;30.42;;
64560;SDS011;50960;46.838;16.838;2022-12-01T20:39:39;43.70;;;31.17;;
64560;SDS011;50960;46.838;16.838;2022-12-01T20:42:06;41.72;;;30.15;;
64560;SDS011;50960;46.838;16.838;2022-12-01T20:44:34;42.08;;;30.65;;
64560;SDS011;50960;46.838;16.838;2022-12-01T20:47:01;42.00;;;31.27;;
64560;SDS011;50960;46.838;16.838;2022-12-01T20:49:28;41.67;;;31.42;;
64560;SDS011;50960;46.838;16.838;2022-12-01T20:51:54;41.78;;;31.27;;
64560;SDS011;50960;46.838;16.838;2022-12-01T20:54:21;39.50;;;30.25;;
64560;SDS011;50960;46.838;16.838;2022-12-01T20:56:47;41.00;;;30.77;;
64560;SDS011;50960;46.838;16.838;2022-12-01T20:59:13;38.53;;;28.73;;
64560;SDS011;50960;46.838;16.838;2022-12-01T21:01:39;40.10;;;29.65;;
64560;SDS011;50960;46.838;16.838;2022-12-01T21:04:05;40.63;;;28.77;;
64560;SDS011;50960;46.838;16.838;2022-12-01T21:06:33;42.70;;;30.48;;
64560;SDS011;50960;46.838;16.838;2022-12-01T21:08:59;43.42;;;30.98;;
64560;SDS011;50960;46.838;16.838;2022-12-01T21:11:28;43.42;;;31.67;;
64560;SDS011;50960;46.838;16.838;2022-12-01T21:14:19;43.10;;;31.90;;
64560;SDS011;50960;46.838;16.838;2022-12-01T21:16:56;48.63;;;33.67;;
64560;SDS011;50960;46.838;16.838;2022-12-01T21:19:42;44.95;;;32.15;;
64560;SDS011;50960;46.838;16.838;2022-12-01T21:22:14;45.47;;;32.38;;
64560;SDS011;50960;46.838;16.838;2022-12-01T21:24:40;44.28;;;31.23;;
64560;SDS011;50960;46.838;16.838;2022-12-01T21:27:10;42.30;;;31.63;;
64560;SDS011;50960;46.838;16.838;2022-12-01T21:29:45;46.92;;;33.03;;
64560;SDS011;50960;46.838;16.838;2022-12-01T21:34:41;46.63;;;33.08;;
64560;SDS011;50960;46.838;16.838;2022-12-01T21:37:17;41.22;;;30.50;;
64560;SDS011;50960;46.838;16.838;2022-12-01T21:39:46;44.83;;;33.08;;
64560;SDS011;50960;46.838;16.838;2022-12-01T21:42:19;45.40;;;32.20;;
64560;SDS011;50960;46.838;16.838;2022-12-01T21:44:47;47.50;;;33.83;;
64560;SDS011;50960;46.838;16.838;2022-12-01T21:47:17;50.25;;;34.17;;
64560;SDS011;50960;46.838;16.838;2022-12-01T21:49:46;44.80;;;33.30;;
64560;SDS011;50960;46.838;16.838;2022-12-01T21:52:20;46.63;;;33.30;;
64560;SDS011;50960;46.838;16.838;2022-12-01T22:00:32;43.60;;;32.58;;
64560;SDS011;50960;46.838;16.838;2022-12-01T22:03:08;44.08;;;33.30;;
64560;SDS011;50960;46.838;16.838;2022-12-01T22:05:51;44.55;;;33.25;;
